Time;durP1;ratioP1;P1;durP2;ratioP2;P2;SDS_P1;SDS_P2;PMS_P1;PMS_P2;Temp;Humidity;BMP_temperature;BMP_pressure;BME280_temperature;BME280_humidity;BME280_pressure;Samples;Min_cycle;Max_cycle;Signal;HPM_P1;HPM_P2
2021/03/27 00:00:39;;;;;;;51.03;34.53;;;7.40;99.90;;;;;;5136546;27;20175;-68
2021/03/27 00:03:14;;;;;;;52.88;33.70;;;7.30;99.90;;;;;;5135726;27;20424;-69
2021/03/27 00:06:09;;;;;;;49.95;34.22;;;7.30;99.90;;;;;;5117876;27;20222;-67
2021/03/27 00:08:50;;;;;;;52.72;34.65;;;7.30;99.90;;;;;;5132840;27;20213;-68
2021/03/27 00:11:31;;;;;;;52.58;33.97;;;7.30;99.90;;;;;;5118016;27;20296;-66
2021/03/27 00:13:58;;;;;;;51.05;33.83;;;7.20;99.90;;;;;;5136161;27;20187;-66
2021/03/27 00:16:33;;;;;;;55.50;36.13;;;7.20;99.90;;;;;;5117818;27;20263;-66
2021/03/27 00:19:15;;;;;;;56.63;34.97;;;7.20;99.90;;;;;;5136041;27;20675;-68
2021/03/27 00:21:56;;;;;;;54.67;35.13;;;7.10;99.90;;;;;;5136375;27;20554;-67
2021/03/27 00:24:26;;;;;;;50.08;33.50;;;7.20;99.90;;;;;;5135865;27;20225;-68
2021/03/27 00:27:07;;;;;;;55.92;34.00;;;7.10;99.90;;;;;;5136253;27;20221;-68
2021/03/27 00:29:42;;;;;;;53.60;34.42;;;7.10;99.90;;;;;;5135891;27;20523;-68
2021/03/27 00:32:44;;;;;;;55.83;34.55;;;7.10;99.90;;;;;;5117599;27;20190;-66
2021/03/27 00:35:17;;;;;;;54.75;35.00;;;7.00;99.90;;;;;;5131727;27;20186;-69
2021/03/27 00:37:45;;;;;;;54.90;34.95;;;6.90;99.90;;;;;;5135622;27;20168;-68
2021/03/27 00:40:18;;;;;;;49.80;32.63;;;6.90;99.90;;;;;;5117256;27;20180;-66
2021/03/27 00:42:49;;;;;;;52.97;33.10;;;6.90;99.90;;;;;;5135598;27;20160;-66
2021/03/27 00:45:18;;;;;;;53.05;35.88;;;6.90;99.90;;;;;;5135175;27;20275;-69
2021/03/27 00:47:50;;;;;;;48.90;32.13;;;6.90;99.90;;;;;;5135491;27;20174;-66
2021/03/27 00:50:42;;;;;;;53.85;34.25;;;6.80;99.90;;;;;;5135785;27;20175;-66
2021/03/27 00:53:23;;;;;;;51.15;33.70;;;6.80;99.90;;;;;;5116955;27;20230;-69
2021/03/27 00:56:13;;;;;;;56.05;35.10;;;6.80;99.90;;;;;;5135581;27;20198;-68
2021/03/27 00:59:03;;;;;;;54.65;35.15;;;6.80;99.90;;;;;;5135197;27;20187;-68
2021/03/27 01:01:36;;;;;;;52.25;32.60;;;6.80;99.90;;;;;;5135645;27;20199;-66
2021/03/27 01:04:04;;;;;;;52.53;32.58;;;6.70;99.90;;;;;;5135218;27;20274;-66
2021/03/27 01:06:38;;;;;;;48.13;33.58;;;6.70;99.90;;;;;;5116886;27;20221;-68
2021/03/27 01:09:06;;;;;;;52.00;33.83;;;6.60;99.90;;;;;;5116766;27;20558;-66
2021/03/27 01:11:44;;;;;;;54.42;33.40;;;6.40;99.90;;;;;;5135596;27;20171;-66
2021/03/27 01:14:24;;;;;;;53.00;32.08;;;6.40;99.90;;;;;;5134989;27;20602;-66
2021/03/27 01:16:53;;;;;;;53.58;34.28;;;6.40;99.90;;;;;;5135523;27;20270;-68
2021/03/27 01:19:42;;;;;;;52.15;33.92;;;6.40;99.90;;;;;;5134900;27;20202;-66
2021/03/27 01:22:11;;;;;;;53.63;35.03;;;6.30;99.90;;;;;;5135422;27;20179;-66
2021/03/27 01:24:37;;;;;;;53.30;34.70;;;6.30;99.90;;;;;;5134911;27;20235;-69
2021/03/27 01:27:22;;;;;;;58.10;36.55;;;6.20;99.90;;;;;;5135291;27;20207;-66
2021/03/27 01:30:09;;;;;;;53.65;34.40;;;6.10;99.90;;;;;;5134724;27;20728;-69
2021/03/27 01:32:47;;;;;;;55.33;35.58;;;6.10;99.90;;;;;;5116343;27;20541;-66
2021/03/27 01:35:33;;;;;;;59.13;36.88;;;6.10;99.90;;;;;;5134862;27;20640;-68
2021/03/27 01:38:21;;;;;;;57.53;36.95;;;6.10;99.90;;;;;;5134736;27;20198;-66
2021/03/27 01:40:52;;;;;;;54.55;36.38;;;6.10;99.90;;;;;;5134841;27;20681;-69
2021/03/27 01:43:35;;;;;;;54.25;34.97;;;6.10;99.90;;;;;;5134700;27;20194;-66
2021/03/27 01:46:28;;;;;;;56.88;36.15;;;6.10;99.90;;;;;;5134321;28;20257;-66
2021/03/27 01:49:21;;;;;;;55.03;36.08;;;6.10;99.90;;;;;;5134649;28;20190;-68
2021/03/27 01:52:01;;;;;;;58.67;37.28;;;6.10;99.90;;;;;;5135052;28;20234;-66
2021/03/27 01:54:49;;;;;;;57.88;38.55;;;6.00;99.90;;;;;;5134510;28;20539;-69
2021/03/27 01:57:32;;;;;;;72.40;39.38;;;5.90;99.90;;;;;;5116221;28;20183;-69
2021/03/27 02:00:09;;;;;;;62.67;40.80;;;5.80;99.90;;;;;;5116122;28;20171;-68
2021/03/27 02:03:23;;;;;;;60.67;38.58;;;5.70;99.90;;;;;;5116048;28;20175;-68
2021/03/27 02:06:16;;;;;;;62.17;38.50;;;5.50;99.90;;;;;;5071916;28;20291;-66
2021/03/27 02:09:04;;;;;;;61.08;38.05;;;5.60;99.90;;;;;;5125984;28;20206;-68
2021/03/27 02:12:04;;;;;;;60.38;38.10;;;5.70;99.90;;;;;;5134761;28;20183;-68
2021/03/27 02:14:51;;;;;;;69.57;40.03;;;5.80;99.90;;;;;;5134230;28;20194;-68
2021/03/27 02:17:25;;;;;;;58.05;37.90;;;5.80;99.90;;;;;;5115987;28;20264;-68
2021/03/27 02:20:13;;;;;;;59.67;41.22;;;5.70;99.90;;;;;;5134544;28;20191;-68
2021/03/27 02:23:00;;;;;;;71.93;40.53;;;5.70;99.90;;;;;;5115851;28;20567;-66
2021/03/27 02:25:49;;;;;;;62.53;40.15;;;5.60;99.90;;;;;;5134301;28;20232;-66
2021/03/27 02:28:41;;;;;;;64.75;37.88;;;5.40;99.90;;;;;;5134356;28;20198;-67
2021/03/27 02:31:13;;;;;;;60.78;40.90;;;5.50;99.90;;;;;;5116067;27;20179;-68
2021/03/27 02:33:59;;;;;;;62.53;38.65;;;5.70;99.90;;;;;;5137402;27;20648;-66
2021/03/27 02:36:58;;;;;;;61.33;40.03;;;5.70;99.90;;;;;;5138074;27;20179;-67
2021/03/27 02:39:45;;;;;;;59.88;39.53;;;5.70;99.90;;;;;;5138045;27;20195;-66
2021/03/27 02:42:10;;;;;;;59.08;39.67;;;5.50;99.90;;;;;;5119621;27;20237;-69
2021/03/27 02:45:01;;;;;;;57.67;36.60;;;5.40;99.90;;;;;;5137847;27;20215;-66
2021/03/27 02:47:48;;;;;;;61.10;38.53;;;5.30;99.90;;;;;;5137929;27;20609;-66
2021/03/27 02:50:39;;;;;;;61.70;38.55;;;5.60;99.90;;;;;;5138037;27;20179;-66
2021/03/27 02:53:16;;;;;;;58.55;38.80;;;5.70;99.90;;;;;;5137856;27;20719;-66
2021/03/27 02:56:04;;;;;;;61.05;39.55;;;5.70;99.90;;;;;;5137927;27;20179;-68
2021/03/27 02:58:37;;;;;;;61.58;39.47;;;5.60;99.90;;;;;;5137531;27;20339;-66
2021/03/27 03:01:19;;;;;;;68.32;39.83;;;5.70;99.90;;;;;;5138018;27;20178;-68
2021/03/27 03:03:50;;;;;;;60.88;39.13;;;5.50;99.90;;;;;;5118988;27;20203;-68
2021/03/27 03:06:24;;;;;;;62.40;38.45;;;5.40;99.90;;;;;;5119265;27;20305;-66
2021/03/27 03:08:56;;;;;;;68.18;40.33;;;5.40;99.90;;;;;;5137310;27;20276;-66
2021/03/27 03:11:31;;;;;;;63.22;39.83;;;5.40;99.90;;;;;;5119182;27;20207;-66
2021/03/27 03:14:20;;;;;;;63.45;40.40;;;5.40;99.90;;;;;;5118881;27;20286;-66
2021/03/27 03:16:57;;;;;;;62.25;40.35;;;5.30;99.90;;;;;;5098683;27;20199;-66
2021/03/27 03:19:36;;;;;;;60.05;39.58;;;5.30;99.90;;;;;;5137336;27;20183;-66
2021/03/27 03:22:20;;;;;;;60.88;39.50;;;5.20;99.90;;;;;;5137729;27;20580;-67
2021/03/27 03:25:04;;;;;;;65.15;40.80;;;5.20;99.90;;;;;;5137057;27;20194;-66
2021/03/27 03:27:41;;;;;;;59.60;39.55;;;5.10;99.90;;;;;;5137066;27;20217;-66
2021/03/27 03:30:27;;;;;;;60.28;39.85;;;5.10;99.90;;;;;;5137063;27;20643;-69
2021/03/27 03:33:20;;;;;;;63.67;39.60;;;5.20;99.90;;;;;;5137038;27;20199;-66
2021/03/27 03:36:04;;;;;;;67.10;40.70;;;5.10;99.90;;;;;;5137155;27;20253;-67
2021/03/27 03:39:03;;;;;;;61.42;39.47;;;5.10;99.90;;;;;;5136677;27;20191;-69
2021/03/27 03:41:51;;;;;;;66.63;41.35;;;5.00;99.90;;;;;;5137238;27;20181;-69
2021/03/27 03:44:33;;;;;;;69.45;41.78;;;5.00;99.90;;;;;;5136621;27;20190;-68
2021/03/27 03:47:10;;;;;;;69.72;43.08;;;5.10;99.90;;;;;;5136676;27;20222;-66
2021/03/27 03:50:04;;;;;;;71.85;41.63;;;5.00;99.90;;;;;;5136743;27;20198;-66
2021/03/27 03:52:51;;;;;;;60.20;41.55;;;5.00;99.90;;;;;;5136649;27;20172;-69
2021/03/27 03:55:36;;;;;;;65.45;39.72;;;5.00;99.90;;;;;;5118206;27;20175;-66
2021/03/27 03:58:29;;;;;;;62.80;39.95;;;4.90;99.90;;;;;;5136489;27;20199;-66
2021/03/27 04:00:58;;;;;;;62.78;38.85;;;4.90;99.90;;;;;;5136747;27;20171;-66
2021/03/27 04:03:45;;;;;;;72.40;41.85;;;4.90;99.90;;;;;;5136446;27;20564;-66
2021/03/27 04:06:17;;;;;;;62.42;39.63;;;5.00;99.90;;;;;;5136773;27;20254;-65
2021/03/27 04:08:49;;;;;;;70.45;43.92;;;5.00;99.90;;;;;;5117744;27;20230;-67
2021/03/27 04:11:42;;;;;;;64.93;40.95;;;5.00;99.90;;;;;;5136762;27;20175;-66
2021/03/27 04:14:22;;;;;;;64.45;42.30;;;5.00;99.90;;;;;;5136069;27;20191;-66
2021/03/27 04:16:51;;;;;;;65.50;41.60;;;4.90;99.90;;;;;;5117614;27;20182;-66
2021/03/27 04:19:25;;;;;;;65.90;40.72;;;4.80;99.90;;;;;;5136100;27;20207;-66
2021/03/27 04:22:23;;;;;;;72.35;42.47;;;4.90;99.90;;;;;;5136606;27;20167;-66
2021/03/27 04:25:33;;;;;;;62.05;40.00;;;4.80;99.90;;;;;;5135877;27;20736;-69
2021/03/27 04:28:33;;;;;;;63.92;42.10;;;4.80;99.90;;;;;;5052793;28;20614;-66
2021/03/27 04:31:04;;;;;;;63.80;41.63;;;4.80;99.90;;;;;;5044574;28;20206;-66
2021/03/27 04:33:55;;;;;;;71.00;43.10;;;4.90;99.90;;;;;;5117286;27;20209;-68
2021/03/27 04:36:41;;;;;;;70.97;41.63;;;4.80;99.90;;;;;;5117604;27;20281;-67
2021/03/27 04:39:22;;;;;;;62.80;40.67;;;4.80;99.90;;;;;;5135765;27;20203;-66
2021/03/27 04:42:11;;;;;;;63.25;42.15;;;4.80;99.90;;;;;;5136104;27;20175;-66
2021/03/27 04:45:05;;;;;;;75.30;44.83;;;4.80;99.90;;;;;;5135666;27;20202;-67
2021/03/27 04:47:35;;;;;;;65.63;43.60;;;4.80;99.90;;;;;;5135492;27;20194;-69
2021/03/27 04:50:20;;;;;;;71.15;42.53;;;4.70;99.90;;;;;;5117195;27;20639;-66
2021/03/27 04:53:03;;;;;;;71.43;45.80;;;4.70;99.90;;;;;;5116952;27;20175;-66
2021/03/27 04:55:44;;;;;;;68.97;43.28;;;4.70;99.90;;;;;;5135051;27;20231;-68
2021/03/27 04:58:28;;;;;;;67.47;41.20;;;4.70;99.90;;;;;;5116869;27;20251;-68
2021/03/27 05:01:01;;;;;;;64.68;41.70;;;4.70;99.90;;;;;;5117092;27;20592;-66
2021/03/27 05:03:33;;;;;;;65.80;42.00;;;4.80;99.90;;;;;;5135259;27;20557;-68
2021/03/27 05:06:12;;;;;;;65.13;41.22;;;4.80;99.90;;;;;;5135492;27;20221;-66
2021/03/27 05:08:58;;;;;;;65.63;41.83;;;4.80;99.90;;;;;;5135177;27;20195;-67
2021/03/27 05:11:45;;;;;;;67.28;44.45;;;4.90;99.90;;;;;;5116754;27;20206;-66
2021/03/27 05:14:23;;;;;;;70.50;42.50;;;4.90;99.90;;;;;;5135080;27;20194;-66
2021/03/27 05:16:59;;;;;;;61.75;41.33;;;4.90;99.90;;;;;;5135475;27;20174;-68
2021/03/27 05:19:35;;;;;;;73.60;42.03;;;4.90;99.90;;;;;;5135082;27;20621;-66
2021/03/27 05:22:16;;;;;;;67.43;41.72;;;4.90;99.90;;;;;;5135585;27;20166;-66
2021/03/27 05:25:04;;;;;;;73.85;43.63;;;4.80;99.90;;;;;;5134821;27;20230;-66
2021/03/27 05:27:44;;;;;;;69.50;44.03;;;4.90;99.90;;;;;;5134856;27;20183;-66
2021/03/27 05:30:10;;;;;;;66.00;44.03;;;4.90;99.90;;;;;;5134987;27;20171;-68
2021/03/27 05:32:45;;;;;;;66.93;43.53;;;5.00;99.90;;;;;;5134745;27;20186;-66
2021/03/27 05:35:23;;;;;;;78.18;46.65;;;5.10;99.90;;;;;;5134869;27;20204;-68
2021/03/27 05:38:20;;;;;;;75.15;46.50;;;5.20;99.90;;;;;;5134645;27;20191;-66
2021/03/27 05:41:19;;;;;;;71.60;44.13;;;5.20;99.90;;;;;;5116177;28;20219;-69
2021/03/27 05:44:18;;;;;;;68.00;43.95;;;5.30;99.90;;;;;;5134582;27;20226;-66
2021/03/27 05:47:05;;;;;;;78.18;46.17;;;5.30;99.90;;;;;;5134349;28;20586;-68
2021/03/27 05:50:12;;;;;;;69.95;46.67;;;5.30;99.90;;;;;;5116092;28;20289;-69
2021/03/27 05:53:25;;;;;;;71.53;44.58;;;5.40;99.90;;;;;;5134654;28;20189;-66
2021/03/27 05:56:18;;;;;;;63.72;43.15;;;5.50;99.90;;;;;;5051206;28;20273;-68
2021/03/27 05:59:28;;;;;;;74.15;47.20;;;5.60;99.90;;;;;;5114046;28;20207;-66
2021/03/27 06:02:04;;;;;;;83.18;46.70;;;5.60;99.90;;;;;;5135122;28;20270;-68
2021/03/27 06:04:48;;;;;;;73.10;47.90;;;5.70;99.90;;;;;;5134370;28;20232;-66
2021/03/27 06:07:43;;;;;;;73.28;48.53;;;5.80;99.90;;;;;;5116898;27;20255;-68
2021/03/27 06:10:25;;;;;;;65.22;44.25;;;5.90;99.90;;;;;;5120253;27;20175;-66
2021/03/27 06:13:01;;;;;;;73.25;47.42;;;6.00;99.90;;;;;;5119999;27;20628;-66
2021/03/27 06:16:10;;;;;;;82.18;49.10;;;6.10;99.90;;;;;;5138746;27;20183;-66
2021/03/27 06:19:14;;;;;;;69.82;44.45;;;6.30;99.90;;;;;;5138520;27;20190;-66
2021/03/27 06:22:06;;;;;;;68.85;43.55;;;6.40;99.90;;;;;;5138758;27;20647;-68
2021/03/27 06:24:50;;;;;;;67.43;42.90;;;6.60;99.90;;;;;;5115786;27;20199;-69
2021/03/27 06:27:46;;;;;;;67.50;43.00;;;6.70;99.90;;;;;;5138340;27;20211;-69
2021/03/27 06:30:37;;;;;;;77.80;46.10;;;6.80;99.90;;;;;;5119825;27;20247;-67
2021/03/27 06:33:19;;;;;;;67.50;48.00;;;6.90;99.90;;;;;;5138080;27;20739;-66
2021/03/27 06:36:17;;;;;;;71.38;47.28;;;7.00;99.90;;;;;;5138121;27;20175;-66
2021/03/27 06:39:02;;;;;;;63.50;41.17;;;7.10;99.90;;;;;;5138050;27;20199;-66
2021/03/27 06:41:48;;;;;;;61.80;41.70;;;7.30;99.90;;;;;;5138353;27;20506;-67
2021/03/27 06:44:32;;;;;;;60.70;44.97;;;7.60;99.90;;;;;;5138069;27;20197;-68
2021/03/27 06:47:20;;;;;;;67.30;44.60;;;7.80;99.90;;;;;;5137664;27;20279;-66
2021/03/27 06:50:22;;;;;;;65.22;41.70;;;7.80;99.90;;;;;;5137782;27;20187;-70
2021/03/27 06:53:25;;;;;;;61.83;40.42;;;7.90;99.90;;;;;;5137671;27;20195;-66
2021/03/27 06:55:54;;;;;;;62.30;39.63;;;7.90;99.90;;;;;;5119505;27;20190;-66
2021/03/27 06:58:39;;;;;;;62.95;41.75;;;8.20;99.90;;;;;;5119168;27;20187;-69
2021/03/27 07:01:26;;;;;;;62.60;43.25;;;8.60;99.90;;;;;;5138133;27;20225;-68
2021/03/27 07:04:10;;;;;;;65.10;41.38;;;8.70;99.90;;;;;;5119084;27;20203;-69
2021/03/27 07:06:56;;;;;;;64.40;44.45;;;8.90;99.90;;;;;;5118948;27;20206;-68
2021/03/27 07:09:41;;;;;;;57.47;38.33;;;9.10;99.90;;;;;;5137559;27;20194;-68
2021/03/27 07:12:15;;;;;;;56.85;37.53;;;9.30;99.90;;;;;;5137993;27;20231;-68
2021/03/27 07:15:13;;;;;;;55.95;39.28;;;9.50;99.90;;;;;;5137326;27;20205;-68
2021/03/27 07:17:50;;;;;;;63.95;41.70;;;9.60;99.90;;;;;;5136905;27;20195;-68
2021/03/27 07:20:50;;;;;;;57.58;40.88;;;9.80;99.90;;;;;;5137578;27;20550;-66
2021/03/27 07:23:34;;;;;;;57.25;39.75;;;10.00;99.90;;;;;;5137172;27;20222;-66
2021/03/27 07:26:38;;;;;;;55.53;35.17;;;10.30;99.90;;;;;;5137435;27;20217;-66
2021/03/27 07:29:31;;;;;;;49.10;36.42;;;10.40;99.90;;;;;;5053891;28;20201;-68
2021/03/27 07:32:35;;;;;;;56.85;40.65;;;10.60;99.90;;;;;;5137039;27;20205;-66
2021/03/27 07:35:16;;;;;;;49.92;40.97;;;11.00;99.90;;;;;;5137121;27;20194;-68
2021/03/27 07:37:54;;;;;;;51.78;38.33;;;11.20;99.90;;;;;;5118389;27;20284;-67
2021/03/27 07:40:40;;;;;;;51.58;41.13;;;11.30;99.90;;;;;;5137035;27;20202;-66
2021/03/27 07:43:41;;;;;;;48.80;38.45;;;11.40;99.00;;;;;;5137000;27;20688;-68
2021/03/27 07:46:37;;;;;;;52.75;35.95;;;11.60;98.70;;;;;;5066910;27;20275;-69
2021/03/27 07:49:21;;;;;;;47.88;36.30;;;11.80;99.30;;;;;;5136781;27;20198;-67
2021/03/27 07:52:21;;;;;;;51.60;38.50;;;11.80;97.20;;;;;;5118392;27;20193;-68
2021/03/27 07:55:25;;;;;;;48.28;34.55;;;11.80;97.50;;;;;;5118081;27;20207;-67
2021/03/27 07:58:30;;;;;;;48.40;36.80;;;12.00;96.80;;;;;;5117959;27;20199;-66
2021/03/27 08:01:14;;;;;;;54.83;37.03;;;12.10;95.70;;;;;;5119105;27;20186;-67
2021/03/27 08:04:11;;;;;;;47.90;36.15;;;12.50;96.00;;;;;;5136333;27;20194;-69
2021/03/27 08:07:02;;;;;;;46.73;35.30;;;12.60;94.80;;;;;;5136866;27;20699;-67
2021/03/27 08:10:01;;;;;;;48.83;35.93;;;12.60;94.60;;;;;;5136213;27;20430;-70
2021/03/27 08:12:48;;;;;;;44.83;34.00;;;12.90;92.70;;;;;;5136316;27;20942;-69
2021/03/27 08:15:33;;;;;;;47.97;34.20;;;13.10;92.40;;;;;;5136339;27;20502;-66
2021/03/27 08:18:33;;;;;;;44.30;32.70;;;12.70;91.90;;;;;;5136165;27;20971;-68
2021/03/27 08:21:15;;;;;;;46.60;39.13;;;13.00;92.50;;;;;;5136454;27;20431;-67
2021/03/27 08:24:21;;;;;;;44.27;37.03;;;13.50;90.70;;;;;;5136018;27;20553;-67
2021/03/27 08:27:32;;;;;;;46.80;36.27;;;13.60;90.50;;;;;;5112852;27;20485;-69
2021/03/27 08:30:35;;;;;;;41.13;32.87;;;13.80;89.90;;;;;;5103690;27;20536;-66
2021/03/27 08:33:37;;;;;;;44.07;37.30;;;14.00;88.90;;;;;;5135871;27;20433;-67
2021/03/27 08:36:25;;;;;;;43.97;33.63;;;14.50;86.90;;;;;;5117471;27;20422;-67
2021/03/27 08:39:02;;;;;;;41.93;33.17;;;14.90;83.40;;;;;;5135609;27;20792;-70
2021/03/27 08:42:05;;;;;;;44.10;32.60;;;14.90;82.40;;;;;;5136030;27;20502;-67
2021/03/27 08:44:56;;;;;;;39.10;34.03;;;15.30;82.20;;;;;;5117066;27;21029;-67
2021/03/27 08:47:49;;;;;;;37.20;30.13;;;16.30;78.00;;;;;;5135598;27;20459;-68
2021/03/27 08:50:40;;;;;;;37.33;30.73;;;16.20;76.20;;;;;;5115916;27;20473;-69
2021/03/27 08:53:49;;;;;;;35.70;30.60;;;16.40;75.10;;;;;;5134530;27;20440;-67
2021/03/27 08:56:34;;;;;;;37.50;28.67;;;16.50;74.40;;;;;;5135062;27;20468;-67
2021/03/27 08:59:23;;;;;;;34.27;29.23;;;16.50;75.30;;;;;;5134579;27;20782;-69
2021/03/27 09:02:14;;;;;;;39.73;29.57;;;16.10;75.10;;;;;;5134901;27;21296;-70
2021/03/27 09:04:57;;;;;;;32.83;29.33;;;16.70;74.30;;;;;;5134430;27;20946;-69
2021/03/27 09:07:43;;;;;;;32.63;28.73;;;16.70;72.40;;;;;;5135234;27;20459;-67
2021/03/27 09:11:00;;;;;;;33.10;28.73;;;16.40;71.30;;;;;;5093413;27;20966;-70
2021/03/27 09:14:10;;;;;;;36.00;30.03;;;17.10;71.10;;;;;;5051909;28;20906;-67
2021/03/27 09:17:04;;;;;;;37.97;31.40;;;16.30;71.80;;;;;;5030584;28;20478;-69
2021/03/27 09:19:43;;;;;;;35.10;28.90;;;16.70;71.10;;;;;;5133697;27;20431;-70
2021/03/27 09:22:47;;;;;;;36.37;32.50;;;17.00;70.80;;;;;;5133721;27;20414;-69
2021/03/27 09:25:30;;;;;;;38.60;28.17;;;17.20;69.10;;;;;;5133727;27;20430;-67
2021/03/27 09:28:36;;;;;;;34.07;27.77;;;17.20;69.80;;;;;;5115613;27;20488;-68
2021/03/27 09:31:11;;;;;;;35.67;26.57;;;17.90;69.20;;;;;;5133880;27;20417;-67
2021/03/27 09:33:59;;;;;;;36.20;32.40;;;16.10;70.50;;;;;;5115318;27;20502;-69
2021/03/27 09:36:58;;;;;;;37.10;28.20;;;17.10;70.00;;;;;;5134587;27;20415;-69
2021/03/27 09:39:33;;;;;;;34.63;27.67;;;17.40;69.60;;;;;;5134772;27;20433;-67
2021/03/27 09:42:31;;;;;;;35.10;29.70;;;17.90;67.80;;;;;;5116440;28;20462;-67
2021/03/27 09:45:18;;;;;;;34.07;27.10;;;17.60;66.80;;;;;;5116010;28;20411;-67
2021/03/27 09:48:13;;;;;;;34.80;29.97;;;17.80;66.60;;;;;;5134693;28;20395;-67
2021/03/27 09:51:16;;;;;;;31.93;27.53;;;18.10;65.60;;;;;;5134797;28;20434;-69
2021/03/27 09:54:20;;;;;;;32.27;25.37;;;18.10;66.10;;;;;;5134524;28;20780;-67
2021/03/27 09:57:02;;;;;;;35.57;29.33;;;17.90;66.90;;;;;;5135067;28;20426;-70
2021/03/27 09:59:45;;;;;;;34.03;27.87;;;18.20;65.30;;;;;;5134507;28;20419;-68
2021/03/27 10:02:37;;;;;;;35.20;25.63;;;18.30;67.00;;;;;;5134651;28;20419;-67
2021/03/27 10:05:20;;;;;;;31.73;24.37;;;18.60;63.40;;;;;;5134607;28;20419;-67
2021/03/27 10:08:02;;;;;;;36.53;27.20;;;18.10;65.10;;;;;;5134494;28;20436;-68
2021/03/27 10:11:00;;;;;;;30.67;26.70;;;18.10;64.80;;;;;;5134606;28;20427;-70
2021/03/27 10:13:28;;;;;;;33.10;25.50;;;18.40;64.30;;;;;;5116021;28;20431;-67
2021/03/27 10:15:57;;;;;;;34.63;30.13;;;18.20;64.30;;;;;;5132969;28;20432;-67
2021/03/27 10:18:41;;;;;;;33.13;28.40;;;17.80;64.20;;;;;;5114347;28;20469;-68
2021/03/27 10:21:24;;;;;;;30.07;26.50;;;18.10;64.30;;;;;;5132755;28;20425;-68
2021/03/27 10:24:06;;;;;;;33.10;23.93;;;18.30;64.40;;;;;;5133343;28;20799;-67
2021/03/27 10:26:47;;;;;;;35.67;28.40;;;18.20;64.90;;;;;;5134621;28;20527;-69
2021/03/27 10:29:45;;;;;;;31.90;24.90;;;18.10;63.90;;;;;;5116727;28;20439;-68
2021/03/27 10:32:32;;;;;;;28.30;23.30;;;18.20;63.40;;;;;;5058173;28;20418;-67
2021/03/27 10:35:00;;;;;;;31.37;24.00;;;18.30;65.40;;;;;;5112012;28;20419;-69
2021/03/27 10:38:00;;;;;;;33.60;24.37;;;18.00;63.40;;;;;;5111805;28;20414;-69
2021/03/27 10:40:45;;;;;;;30.80;22.50;;;17.30;64.40;;;;;;5130334;28;20431;-69
2021/03/27 10:43:46;;;;;;;31.70;26.03;;;18.00;64.90;;;;;;5130157;28;20824;-67
2021/03/27 10:46:29;;;;;;;33.37;24.50;;;18.50;62.50;;;;;;5126580;28;21030;-67
2021/03/27 10:49:21;;;;;;;30.80;23.30;;;18.70;62.30;;;;;;5131948;28;20449;-67
2021/03/27 10:52:05;;;;;;;36.93;23.83;;;18.00;62.80;;;;;;5132307;28;20417;-68
2021/03/27 10:54:44;;;;;;;29.97;23.07;;;18.80;62.20;;;;;;5134612;27;20526;-67
2021/03/27 10:57:23;;;;;;;29.53;24.10;;;18.60;64.20;;;;;;5138394;27;20420;-70
2021/03/27 11:00:01;;;;;;;30.10;22.07;;;18.60;61.50;;;;;;5137563;27;21122;-70
2021/03/27 11:03:02;;;;;;;29.93;22.63;;;19.10;61.70;;;;;;5137631;27;20399;-69
2021/03/27 11:05:58;;;;;;;31.10;24.53;;;18.60;61.10;;;;;;5137752;27;20448;-70
2021/03/27 11:08:48;;;;;;;28.73;24.10;;;18.30;62.00;;;;;;5119065;27;20442;-67
2021/03/27 11:11:29;;;;;;;32.43;24.50;;;18.90;61.80;;;;;;5137988;27;20933;-68
2021/03/27 11:14:15;;;;;;;31.77;23.33;;;19.30;61.40;;;;;;5137472;27;20523;-69
2021/03/27 11:17:29;;;;;;;30.50;25.03;;;19.00;62.90;;;;;;5119178;27;20962;-69
2021/03/27 11:20:25;;;;;;;32.97;23.73;;;18.40;62.20;;;;;;5063805;27;20422;-69
2021/03/27 11:23:05;;;;;;;28.97;24.40;;;19.00;61.50;;;;;;5137245;27;20434;-68
2021/03/27 11:25:48;;;;;;;34.33;25.07;;;19.50;60.30;;;;;;5118498;27;20441;-67
2021/03/27 11:28:17;;;;;;;32.53;25.60;;;19.80;61.40;;;;;;5137242;27;20957;-68
2021/03/27 11:30:57;;;;;;;28.30;23.23;;;19.60;60.20;;;;;;5118720;27;20438;-69
2021/03/27 11:33:29;;;;;;;32.07;24.40;;;19.80;60.50;;;;;;5137092;27;20431;-69
2021/03/27 11:36:14;;;;;;;30.10;23.43;;;19.90;60.20;;;;;;5137470;27;20419;-67
2021/03/27 11:38:45;;;;;;;28.63;25.23;;;20.00;60.10;;;;;;5136914;27;20423;-69
2021/03/27 11:41:37;;;;;;;30.83;22.93;;;20.10;59.40;;;;;;5118700;27;20422;-70
2021/03/27 11:44:24;;;;;;;31.80;23.70;;;20.00;59.90;;;;;;5137115;27;20799;-67
2021/03/27 11:47:06;;;;;;;30.70;24.77;;;19.80;61.60;;;;;;5136514;27;20497;-69
2021/03/27 11:50:10;;;;;;;29.40;24.37;;;19.70;59.10;;;;;;5136634;27;20435;-67
2021/03/27 11:53:04;;;;;;;29.83;25.07;;;19.40;60.30;;;;;;5112425;27;20423;-68
2021/03/27 11:55:34;;;;;;;35.20;22.87;;;19.40;60.30;;;;;;5136772;27;20451;-68
2021/03/27 11:58:30;;;;;;;31.10;23.33;;;19.30;61.20;;;;;;5136606;27;20974;-69
2021/03/27 12:01:06;;;;;;;32.10;23.40;;;19.50;60.60;;;;;;5136920;27;20908;-69
2021/03/27 12:04:13;;;;;;;35.07;25.07;;;19.30;60.50;;;;;;5136399;27;20506;-69
2021/03/27 12:06:56;;;;;;;29.07;23.07;;;19.20;61.30;;;;;;5136832;27;20501;-67
2021/03/27 12:10:05;;;;;;;29.90;24.93;;;19.10;60.80;;;;;;5117749;27;20461;-67
2021/03/27 12:13:00;;;;;;;30.93;23.93;;;19.10;60.90;;;;;;5099214;27;20429;-67
2021/03/27 12:15:55;;;;;;;29.93;24.83;;;19.00;61.50;;;;;;5136455;27;20422;-68
2021/03/27 12:18:48;;;;;;;28.50;23.33;;;19.00;61.10;;;;;;5093995;27;20446;-67
2021/03/27 12:21:26;;;;;;;27.87;21.43;;;19.00;61.30;;;;;;5136037;27;20509;-67
2021/03/27 12:24:01;;;;;;;30.40;22.67;;;19.00;61.40;;;;;;5136045;27;20422;-70
2021/03/27 12:27:01;;;;;;;29.70;22.93;;;19.20;60.70;;;;;;5117653;27;20904;-69
2021/03/27 12:29:29;;;;;;;34.60;27.73;;;19.50;61.90;;;;;;5135973;27;20972;-69
2021/03/27 12:32:04;;;;;;;29.87;24.53;;;19.40;61.30;;;;;;5136403;27;20441;-68
2021/03/27 12:35:02;;;;;;;31.33;25.47;;;19.30;60.90;;;;;;5135747;27;20422;-68
2021/03/27 12:37:27;;;;;;;28.47;23.57;;;19.60;61.90;;;;;;5117312;27;20425;-68
2021/03/27 12:40:38;;;;;;;32.63;25.67;;;19.90;62.10;;;;;;5117285;27;20942;-70
2021/03/27 12:43:14;;;;;;;35.00;25.00;;;19.70;60.70;;;;;;5103976;27;20213;-67
2021/03/27 12:45:45;;;;;;;28.10;23.10;;;19.90;61.80;;;;;;5135342;27;20465;-69
2021/03/27 12:48:20;;;;;;;30.90;24.43;;;20.00;60.60;;;;;;5117087;27;20481;-67
2021/03/27 12:51:20;;;;;;;33.37;25.10;;;19.80;60.80;;;;;;5135135;27;20419;-68
2021/03/27 12:53:59;;;;;;;30.80;23.23;;;19.80;61.10;;;;;;5135466;27;20437;-69
2021/03/27 12:56:37;;;;;;;33.17;21.80;;;19.90;60.90;;;;;;5135843;27;20471;-67
2021/03/27 12:59:13;;;;;;;25.73;22.67;;;19.80;60.50;;;;;;5135552;27;20437;-67
2021/03/27 13:01:45;;;;;;;29.43;20.17;;;19.90;61.30;;;;;;5135961;27;20451;-70
2021/03/27 13:04:18;;;;;;;26.10;18.90;;;20.40;61.70;;;;;;5135327;27;20476;-68
2021/03/27 13:07:03;;;;;;;27.80;23.50;;;19.70;60.80;;;;;;5117037;27;20466;-69
2021/03/27 13:09:34;;;;;;;28.37;23.57;;;20.10;60.30;;;;;;5135162;27;20439;-68
2021/03/27 13:12:10;;;;;;;27.17;21.67;;;20.00;60.80;;;;;;5117062;27;20433;-69
2021/03/27 13:15:25;;;;;;;25.60;21.30;;;19.80;60.70;;;;;;5135078;27;20414;-68
2021/03/27 13:18:00;;;;;;;30.90;19.67;;;20.30;59.90;;;;;;5034788;28;20490;-67
2021/03/27 13:20:46;;;;;;;31.17;21.60;;;19.80;61.20;;;;;;5130657;27;20468;-68
2021/03/27 13:23:18;;;;;;;27.40;21.90;;;19.80;61.30;;;;;;5120214;27;20444;-68
2021/03/27 13:26:04;;;;;;;34.20;22.90;;;20.10;61.00;;;;;;5135084;27;20550;-68
2021/03/27 13:29:05;;;;;;;24.77;20.23;;;20.40;60.00;;;;;;5134829;27;20434;-67
2021/03/27 13:31:49;;;;;;;24.90;20.40;;;20.30;60.10;;;;;;5065164;27;20510;-69
2021/03/27 13:34:44;;;;;;;27.80;23.20;;;20.50;61.00;;;;;;5135009;27;20422;-67
2021/03/27 13:37:12;;;;;;;26.93;21.37;;;20.60;59.80;;;;;;5133952;27;20433;-70
2021/03/27 13:39:42;;;;;;;28.13;20.53;;;20.90;59.30;;;;;;5134729;27;20492;-68
2021/03/27 13:42:26;;;;;;;27.40;19.87;;;20.90;60.40;;;;;;5116586;27;20411;-70
2021/03/27 13:45:01;;;;;;;25.90;20.37;;;20.60;59.10;;;;;;5134514;27;20750;-68
2021/03/27 13:47:52;;;;;;;31.90;23.90;;;20.80;59.40;;;;;;5134498;27;20472;-71
2021/03/27 13:50:27;;;;;;;23.33;19.80;;;21.00;61.00;;;;;;5134746;28;20885;-68
2021/03/27 13:53:28;;;;;;;33.57;21.57;;;21.20;60.00;;;;;;5134519;28;20427;-68
2021/03/27 13:56:29;;;;;;;25.80;20.30;;;21.10;59.80;;;;;;5134651;28;20427;-69
2021/03/27 13:59:00;;;;;;;25.20;19.33;;;21.10;59.10;;;;;;5108329;28;20786;-68
2021/03/27 14:01:42;;;;;;;22.90;18.60;;;21.30;59.50;;;;;;5116331;28;20431;-69
2021/03/27 14:04:24;;;;;;;24.03;17.63;;;21.10;59.60;;;;;;5134504;28;20957;-70
2021/03/27 14:07:02;;;;;;;22.57;18.20;;;20.60;59.40;;;;;;5134811;28;20919;-70